sensor_id;sensor_type;location;lat;lon;timestamp;pressure;altitude;pressure_sealevel;temperature;humidity
60866;BME280;46701;51.558;-0.448;2022-07-29T00:01:28;101451.00;;;27.17;40.16
60866;BME280;46701;51.558;-0.448;2022-07-29T00:06:30;101453.00;;;27.16;40.31
60866;BME280;46701;51.558;-0.448;2022-07-29T00:11:32;101455.00;;;27.16;40.20
60866;BME280;46701;51.558;-0.448;2022-07-29T00:16:34;101455.00;;;27.16;40.29
60866;BME280;46701;51.558;-0.448;2022-07-29T00:21:36;101457.00;;;27.16;40.17
60866;BME280;46701;51.558;-0.448;2022-07-29T00:26:38;101457.00;;;27.16;40.34
60866;BME280;46701;51.558;-0.448;2022-07-29T00:31:40;101459.00;;;27.16;40.27
60866;BME280;46701;51.558;-0.448;2022-07-29T00:36:42;101459.00;;;27.15;40.29
60866;BME280;46701;51.558;-0.448;2022-07-29T00:41:44;101457.00;;;27.15;40.46
60866;BME280;46701;51.558;-0.448;2022-07-29T00:46:46;101459.00;;;27.15;40.39
60866;BME280;46701;51.558;-0.448;2022-07-29T00:51:48;101459.00;;;27.14;40.52
60866;BME280;46701;51.558;-0.448;2022-07-29T00:56:50;101461.00;;;27.14;40.52
60866;BME280;46701;51.558;-0.448;2022-07-29T01:01:52;101459.00;;;27.13;40.55
60866;BME280;46701;51.558;-0.448;2022-07-29T01:06:54;101459.00;;;27.12;40.65
60866;BME280;46701;51.558;-0.448;2022-07-29T01:11:56;101461.00;;;27.12;40.67
60866;BME280;46701;51.558;-0.448;2022-07-29T01:16:59;101459.00;;;27.11;40.68
60866;BME280;46701;51.558;-0.448;2022-07-29T01:22:02;101461.00;;;27.10;40.89
60866;BME280;46701;51.558;-0.448;2022-07-29T01:23:23;101461.00;;;27.10;40.89
60866;BME280;46701;51.558;-0.448;2022-07-29T01:23:30;101461.00;;;27.10;40.89
60866;BME280;46701;51.558;-0.448;2022-07-29T01:23:31;101461.00;;;27.10;40.89
60866;BME280;46701;51.558;-0.448;2022-07-29T01:23:40;101461.00;;;27.10;40.89
60866;BME280;46701;51.558;-0.448;2022-07-29T01:23:43;101461.00;;;27.10;40.89
60866;BME280;46701;51.558;-0.448;2022-07-29T01:23:53;101461.00;;;27.10;40.89
60866;BME280;46701;51.558;-0.448;2022-07-29T01:23:59;101461.00;;;27.10;40.89
60866;BME280;46701;51.558;-0.448;2022-07-29T01:24:10;101461.00;;;27.10;40.89
60866;BME280;46701;51.558;-0.448;2022-07-29T01:24:11;101461.00;;;27.10;40.89
60866;BME280;46701;51.558;-0.448;2022-07-29T01:27:04;101463.00;;;27.10;40.83
60866;BME280;46701;51.558;-0.448;2022-07-29T01:28:10;101463.00;;;27.10;40.83
60866;BME280;46701;51.558;-0.448;2022-07-29T01:28:17;101463.00;;;27.10;40.83
60866;BME280;46701;51.558;-0.448;2022-07-29T01:28:29;101463.00;;;27.10;40.83
60866;BME280;46701;51.558;-0.448;2022-07-29T01:28:33;101463.00;;;27.10;40.83
60866;BME280;46701;51.558;-0.448;2022-07-29T01:28:39;101463.00;;;27.10;40.83
60866;BME280;46701;51.558;-0.448;2022-07-29T01:28:39;101463.00;;;27.10;40.83
60866;BME280;46701;51.558;-0.448;2022-07-29T01:28:40;101463.00;;;27.10;40.83
60866;BME280;46701;51.558;-0.448;2022-07-29T01:28:47;101463.00;;;27.10;40.83
60866;BME280;46701;51.558;-0.448;2022-07-29T01:28:52;101463.00;;;27.10;40.83
60866;BME280;46701;51.558;-0.448;2022-07-29T01:29:00;101463.00;;;27.10;40.83
60866;BME280;46701;51.558;-0.448;2022-07-29T01:32:05;101461.00;;;27.09;40.85
60866;BME280;46701;51.558;-0.448;2022-07-29T01:37:08;101461.00;;;27.08;40.98
60866;BME280;46701;51.558;-0.448;2022-07-29T01:42:10;101457.00;;;27.07;40.89
60866;BME280;46701;51.558;-0.448;2022-07-29T01:47:12;101459.00;;;27.06;41.01
60866;BME280;46701;51.558;-0.448;2022-07-29T01:52:13;101461.00;;;27.05;41.01
60866;BME280;46701;51.558;-0.448;2022-07-29T01:57:15;101459.00;;;27.05;40.98
60866;BME280;46701;51.558;-0.448;2022-07-29T02:02:16;101461.00;;;27.04;41.03
60866;BME280;46701;51.558;-0.448;2022-07-29T02:07:19;101459.00;;;27.03;40.82
60866;BME280;46701;51.558;-0.448;2022-07-29T02:12:20;101463.00;;;27.03;40.54
60866;BME280;46701;51.558;-0.448;2022-07-29T02:17:23;101461.00;;;27.04;40.29
60866;BME280;46701;51.558;-0.448;2022-07-29T02:22:24;101461.00;;;27.04;40.31
60866;BME280;46701;51.558;-0.448;2022-07-29T02:27:26;101461.00;;;27.04;40.25
60866;BME280;46701;51.558;-0.448;2022-07-29T02:32:28;101461.00;;;27.05;40.18
60866;BME280;46701;51.558;-0.448;2022-07-29T02:37:30;101459.00;;;27.05;40.16
60866;BME280;46701;51.558;-0.448;2022-07-29T02:42:32;101459.00;;;27.05;40.37
60866;BME280;46701;51.558;-0.448;2022-07-29T02:47:34;101461.00;;;27.05;40.27
60866;BME280;46701;51.558;-0.448;2022-07-29T02:52:37;101461.00;;;27.06;40.33
60866;BME280;46701;51.558;-0.448;2022-07-29T02:57:39;101461.00;;;27.06;40.32
60866;BME280;46701;51.558;-0.448;2022-07-29T03:02:41;101461.00;;;27.06;40.29
60866;BME280;46701;51.558;-0.448;2022-07-29T03:07:43;101461.00;;;27.06;40.49
60866;BME280;46701;51.558;-0.448;2022-07-29T03:12:44;101463.00;;;27.06;40.49
60866;BME280;46701;51.558;-0.448;2022-07-29T03:17:46;101463.00;;;27.06;40.42
60866;BME280;46701;51.558;-0.448;2022-07-29T03:22:48;101463.00;;;27.06;40.50
60866;BME280;46701;51.558;-0.448;2022-07-29T03:27:50;101463.00;;;27.06;40.61
60866;BME280;46701;51.558;-0.448;2022-07-29T03:32:52;101463.00;;;27.06;40.67
60866;BME280;46701;51.558;-0.448;2022-07-29T03:37:54;101463.00;;;27.06;40.71
60866;BME280;46701;51.558;-0.448;2022-07-29T03:42:57;101463.00;;;27.06;40.66
60866;BME280;46701;51.558;-0.448;2022-07-29T03:48:00;101465.00;;;27.05;40.66
60866;BME280;46701;51.558;-0.448;2022-07-29T03:53:01;101461.00;;;27.05;40.82
60866;BME280;46701;51.558;-0.448;2022-07-29T03:58:03;101463.00;;;27.05;40.90
60866;BME280;46701;51.558;-0.448;2022-07-29T04:03:05;101463.00;;;27.04;40.97
60866;BME280;46701;51.558;-0.448;2022-07-29T04:08:07;101465.00;;;27.04;41.02
60866;BME280;46701;51.558;-0.448;2022-07-29T04:13:09;101465.00;;;27.04;41.06
60866;BME280;46701;51.558;-0.448;2022-07-29T04:18:11;101465.00;;;27.03;41.13
60866;BME280;46701;51.558;-0.448;2022-07-29T04:23:13;101465.00;;;27.03;41.09
60866;BME280;46701;51.558;-0.448;2022-07-29T04:28:15;101467.00;;;27.02;41.24
60866;BME280;46701;51.558;-0.448;2022-07-29T04:33:17;101469.00;;;27.01;41.34
60866;BME280;46701;51.558;-0.448;2022-07-29T04:38:19;101467.00;;;27.00;41.26
60866;BME280;46701;51.558;-0.448;2022-07-29T04:43:21;101469.00;;;27.00;41.34
60866;BME280;46701;51.558;-0.448;2022-07-29T04:48:23;101467.00;;;26.99;41.31
60866;BME280;46701;51.558;-0.448;2022-07-29T04:53:25;101469.00;;;26.98;41.37
60866;BME280;46701;51.558;-0.448;2022-07-29T04:58:27;101471.00;;;26.98;41.40
60866;BME280;46701;51.558;-0.448;2022-07-29T05:03:29;101469.00;;;26.97;41.45
